createdAt,value
2022-08-09T00:02:09.197Z,99956.09
2022-08-09T00:05:03.012Z,99954.34
2022-08-09T00:08:04.100Z,99947.50
2022-08-09T00:10:58.206Z,99956.09
2022-08-09T00:13:47.012Z,99950.91
2022-08-09T00:16:36.763Z,99950.09
2022-08-09T00:19:27.794Z,99946.81
2022-08-09T00:22:14.904Z,99945.22
2022-08-09T00:25:10.059Z,99942.75
2022-08-09T00:27:57.467Z,99941.28
2022-08-09T00:30:44.909Z,99942.41
2022-08-09T00:33:50.342Z,99939.97
2022-08-09T00:36:41.503Z,99943.66
2022-08-09T00:40:09.724Z,99942.03
2022-08-09T00:44:10.204Z,99943.28
2022-08-09T00:45:50.554Z,99930.59
2022-08-09T00:48:42.734Z,99933.31
2022-08-09T00:51:42.707Z,99930.88
2022-08-09T00:54:42.153Z,99927.63
2022-08-09T00:57:34.228Z,99933.63
2022-08-09T01:00:23.678Z,99932.81
2022-08-09T01:03:17.240Z,99937.19
2022-08-09T01:06:17.759Z,99934.56
2022-08-09T01:09:19.155Z,99926.78
2022-08-09T01:12:19.836Z,99928.59
2022-08-09T01:15:17.577Z,99931.19
2022-08-09T01:18:10.027Z,99937.19
2022-08-09T01:21:41.007Z,99937.19
2022-08-09T01:24:44.016Z,99936.38
2022-08-09T01:27:41.455Z,99935.69
2022-08-09T01:30:51.911Z,99931.19
2022-08-09T01:33:41.251Z,99932.28
2022-08-09T01:36:30.371Z,99940.88
2022-08-09T01:39:19.136Z,99952.25
2022-08-09T01:42:11.436Z,99940.22
2022-08-09T01:45:01.890Z,99942.97
2022-08-09T01:47:49.917Z,99942.13
2022-08-09T01:50:42.038Z,99942.13
2022-08-09T01:53:41.607Z,99943.13
2022-08-09T01:56:30.365Z,99937.25
2022-08-09T01:59:23.164Z,99939.03
2022-08-09T02:02:14.564Z,99941.63
2022-08-09T02:05:15.196Z,99936.59
2022-08-09T02:08:39.247Z,99941.06
2022-08-09T02:11:17.713Z,99937.81
2022-08-09T02:14:09.299Z,99943.00
2022-08-09T02:17:15.270Z,99952.69
2022-08-09T02:20:07.193Z,99956.38
2022-08-09T02:23:01.977Z,99964.31
2022-08-09T02:25:55.814Z,99961.88
2022-08-09T02:28:49.320Z,99955.19
2022-08-09T02:31:42.792Z,99957.78
2022-08-09T02:34:40.451Z,99964.91
2022-08-09T02:37:36.732Z,99968.47
2022-08-09T02:40:30.343Z,99967.13
2022-08-09T02:43:21.134Z,99969.03
2022-08-09T02:46:11.980Z,99970.81
2022-08-09T02:49:14.130Z,99964.13
2022-08-09T02:52:03.706Z,99960.06
2022-08-09T02:54:54.850Z,99964.44
2022-08-09T02:58:32.393Z,99958.56
2022-08-09T03:00:57.847Z,99950.94
2022-08-09T03:04:17.627Z,99957.75
2022-08-09T03:06:55.627Z,99958.84
2022-08-09T03:09:54.467Z,99956.25
2022-08-09T03:12:52.064Z,99952.19
2022-08-09T03:16:05.780Z,99950.69
2022-08-09T03:18:50.592Z,99956.16
2022-08-09T03:21:40.446Z,99950.28
2022-08-09T03:24:36.823Z,99950.59
2022-08-09T03:27:37.447Z,99945.69
2022-08-09T03:30:36.796Z,99951.19
2022-08-09T03:33:25.225Z,99950.47
2022-08-09T03:36:16.605Z,99950.47
2022-08-09T03:39:06.157Z,99954.19
2022-08-09T03:41:53.411Z,99953.38
2022-08-09T03:44:54.190Z,99969.88
2022-08-09T03:47:46.745Z,99960.47
2022-08-09T03:50:36.436Z,99969.19
2022-08-09T03:53:24.692Z,99963.34
2022-08-09T03:56:19.540Z,99968.69
2022-08-09T03:59:07.442Z,99970.44
2022-08-09T04:02:01.485Z,99978.22
2022-08-09T04:04:51.013Z,99976.59
2022-08-09T04:07:53.264Z,99974.94
2022-08-09T04:10:43.821Z,99978.50
2022-08-09T04:14:37.024Z,99981.38
2022-08-09T04:16:44.405Z,99991.03
2022-08-09T04:19:50.952Z,99986.94
2022-08-09T04:22:41.297Z,99998.41
2022-08-09T04:25:31.417Z,99994.19
2022-08-09T04:28:33.506Z,99993.34
2022-08-09T04:31:26.423Z,99995.94
2022-08-09T04:34:30.732Z,100004.56
2022-08-09T04:37:19.481Z,100007.94
2022-08-09T04:40:11.258Z,100002.91
2022-08-09T04:43:02.457Z,100010.69
2022-08-09T04:45:53.233Z,100008.09
2022-08-09T04:48:41.478Z,100010.69
2022-08-09T04:51:45.220Z,100023.78
2022-08-09T04:54:33.783Z,100015.22
2022-08-09T04:57:24.380Z,100021.84
2022-08-09T05:00:14.171Z,100018.47
2022-08-09T05:03:24.159Z,100018.31
2022-08-09T05:06:26.753Z,100024.34
2022-08-09T05:09:14.511Z,100032.78
2022-08-09T05:12:03.015Z,100030.03
2022-08-09T05:14:52.507Z,100036.06
2022-08-09T05:18:57.223Z,100040.97
2022-08-09T05:20:46.933Z,100037.44
2022-08-09T05:23:53.964Z,100049.41
2022-08-09T05:26:46.150Z,100045.88
2022-08-09T05:29:35.449Z,100039.59
2022-08-09T05:32:24.633Z,100048.88
2022-08-09T05:35:12.657Z,100049.44
2022-08-09T05:38:00.449Z,100050.91
2022-08-09T05:40:50.808Z,100053.38
2022-08-09T05:43:38.244Z,100061.66
2022-08-09T05:46:27.902Z,100052.94
2022-08-09T05:50:16.776Z,100054.28
2022-08-09T05:52:24.978Z,100059.19
2022-08-09T05:55:20.867Z,100069.31
2022-08-09T05:58:08.722Z,100069.00
2022-08-09T06:01:05.472Z,100066.97
2022-08-09T06:03:58.032Z,100069.28
2022-08-09T06:06:49.754Z,100065.59
2022-08-09T06:09:53.886Z,100071.13
2022-08-09T06:12:42.746Z,100068.28
2022-08-09T06:15:30.325Z,100077.41
2022-08-09T06:18:19.332Z,100071.13
2022-08-09T06:21:08.188Z,100074.22
2022-08-09T06:24:02.395Z,100074.63
2022-08-09T06:26:49.945Z,100075.31
2022-08-09T06:29:58.480Z,100082.69
2022-08-09T06:33:00.899Z,100081.59
2022-08-09T06:35:57.810Z,100081.16
2022-08-09T06:38:50.041Z,100088.53
2022-08-09T06:42:06.419Z,100093.41
2022-08-09T06:44:46.953Z,100082.75
2022-08-09T06:47:41.809Z,100088.31
2022-08-09T06:50:31.127Z,100087.06
2022-08-09T06:53:19.340Z,100085.00
2022-08-09T06:56:09.445Z,100081.97
2022-08-09T07:00:56.985Z,100086.88
2022-08-09T07:02:05.582Z,100087.41
2022-08-09T07:04:53.621Z,100093.13
2022-08-09T07:07:59.802Z,100091.88
2022-08-09T07:10:47.782Z,100092.53
2022-08-09T07:14:04.297Z,100092.91
2022-08-09T07:16:48.879Z,100101.41
2022-08-09T07:19:40.841Z,100102.03
2022-08-09T07:22:34.225Z,100092.34
2022-08-09T07:25:31.363Z,100102.44
2022-08-09T07:28:28.256Z,100096.28
2022-08-09T07:31:15.823Z,100103.81
2022-08-09T07:34:04.629Z,100101.88
2022-08-09T07:36:52.957Z,100106.94
2022-08-09T07:39:42.330Z,100106.63
2022-08-09T07:42:32.558Z,100102.25
2022-08-09T07:45:39.983Z,100106.47
2022-08-09T07:48:30.275Z,100108.13
2022-08-09T07:52:04.980Z,100111.38
2022-08-09T07:54:30.191Z,100102.63
2022-08-09T07:57:17.976Z,100106.88
2022-08-09T08:00:09.177Z,100111.09
2022-08-09T08:03:04.654Z,100107.53
2022-08-09T08:05:54.492Z,100104.91
2022-08-09T08:09:03.273Z,100109.16
2022-08-09T08:12:10.350Z,100106.56
2022-08-09T08:14:59.523Z,100102.03
2022-08-09T08:17:53.925Z,100100.09
2022-08-09T08:20:43.034Z,100106.94
2022-08-09T08:23:34.858Z,100112.78
2022-08-09T08:26:26.449Z,100105.53
2022-08-09T08:29:14.766Z,100104.41
2022-08-09T08:32:07.689Z,100104.63
2022-08-09T08:34:59.979Z,100111.53
2022-08-09T08:38:04.414Z,100109.00
2022-08-09T08:40:56.777Z,100103.88
2022-08-09T08:43:46.349Z,100102.34
2022-08-09T08:47:02.096Z,100100.75
2022-08-09T08:49:49.442Z,100102.06
2022-08-09T08:52:57.660Z,100104.25
2022-08-09T08:55:44.975Z,100101.31
2022-08-09T08:58:35.970Z,100105.25
2022-08-09T09:01:35.436Z,100102.22
2022-08-09T09:04:47.550Z,100101.75
2022-08-09T09:07:42.339Z,100107.16
2022-08-09T09:10:32.028Z,100106.69
2022-08-09T09:13:20.723Z,100100.88
2022-08-09T09:16:10.894Z,100106.59
2022-08-09T09:19:22.702Z,100103.50
2022-08-09T09:22:11.688Z,100111.84
2022-08-09T09:26:01.084Z,100107.00
2022-08-09T09:28:10.796Z,100112.22
2022-08-09T09:31:01.555Z,100107.06
2022-08-09T09:33:48.641Z,100114.09
2022-08-09T09:36:52.967Z,100094.25
2022-08-09T09:39:55.545Z,100101.31
2022-08-09T09:42:56.641Z,100108.66
2022-08-09T09:46:38.908Z,100100.19
2022-08-09T09:49:06.368Z,100102.19
2022-08-09T09:52:04.215Z,100095.69
2022-08-09T09:54:55.234Z,100094.38
2022-08-09T09:58:03.859Z,100092.78
2022-08-09T10:01:00.242Z,100089.84
2022-08-09T10:03:56.976Z,100098.34
2022-08-09T10:06:52.023Z,100084.34
2022-08-09T10:09:55.448Z,100098.00
2022-08-09T10:12:51.754Z,100098.53
2022-08-09T10:16:09.198Z,100085.16
2022-08-09T10:19:00.263Z,100082.06
2022-08-09T10:21:49.670Z,100084.03
2022-08-09T10:24:37.228Z,100080.13
2022-08-09T10:27:34.559Z,100082.91
2022-08-09T10:34:08.620Z,100085.19
2022-08-09T10:36:45.228Z,100077.97
2022-08-09T10:39:40.915Z,100079.09
2022-08-09T10:42:38.255Z,100075.78
2022-08-09T10:45:31.503Z,100077.38
2022-08-09T10:48:30.486Z,100065.94
2022-08-09T10:51:41.342Z,100073.41
2022-08-09T10:54:29.195Z,100070.00
2022-08-09T10:57:16.910Z,100067.38
2022-08-09T11:00:37.104Z,100056.47
2022-08-09T11:03:51.382Z,100057.97
2022-08-09T11:06:44.701Z,100052.44
2022-08-09T11:09:53.051Z,100064.38
2022-08-09T11:12:45.118Z,100065.69
2022-08-09T11:16:04.545Z,100072.41
2022-08-09T11:18:48.357Z,100069.47
2022-08-09T11:21:57.240Z,100068.94
2022-08-09T11:25:09.917Z,100076.47
2022-08-09T11:28:08.110Z,100081.22
2022-08-09T11:31:50.346Z,100081.09
2022-08-09T11:34:48.981Z,100073.41
2022-08-09T11:37:43.250Z,100070.16
2022-08-09T11:40:37.030Z,100063.47
2022-08-09T11:43:52.096Z,100065.63
2022-08-09T11:47:01.949Z,100066.09
2022-08-09T11:50:55.278Z,100065.47
2022-08-09T11:54:00.721Z,100064.16
2022-08-09T11:56:42.546Z,100056.66
2022-08-09T11:59:35.277Z,100062.69
2022-08-09T12:02:37.018Z,100066.09
2022-08-09T12:05:37.694Z,100053.25
2022-08-09T12:08:29.275Z,100049.81
2022-08-09T12:11:19.516Z,100046.56
2022-08-09T12:14:37.070Z,100046.88
2022-08-09T12:17:28.189Z,100051.78
2022-08-09T12:20:30.749Z,100051.16
2022-08-09T12:23:24.663Z,100053.75
2022-08-09T12:26:26.654Z,100049.19
2022-08-09T12:29:32.824Z,100044.28
2022-08-09T12:32:28.091Z,100034.16
2022-08-09T12:35:19.336Z,100042.28
2022-08-09T12:38:37.299Z,100044.59
2022-08-09T12:41:33.709Z,100029.75
2022-08-09T12:44:25.916Z,100030.53
2022-08-09T12:47:24.935Z,100033.00
2022-08-09T12:50:19.964Z,100039.03
2022-08-09T12:53:35.090Z,100033.00
2022-08-09T12:56:40.152Z,100021.28
2022-08-09T12:59:39.676Z,100032.69
2022-08-09T13:02:54.010Z,100013.94
2022-08-09T13:05:52.476Z,100015.56
2022-08-09T13:09:12.523Z,100008.72
2022-08-09T13:12:05.384Z,100015.56
2022-08-09T13:14:55.137Z,100014.59
2022-08-09T13:18:03.288Z,99999.56
2022-08-09T13:22:33.366Z,100006.44
2022-08-09T13:24:06.348Z,100007.22
2022-08-09T13:27:06.141Z,99999.56
2022-08-09T13:30:03.980Z,99995.00
2022-08-09T13:33:06.735Z,100002.00
2022-08-09T13:36:37.870Z,100007.22
2022-08-09T13:41:18.892Z,99996.00
2022-08-09T13:42:17.834Z,99995.19
2022-08-09T13:45:08.348Z,100003.66
2022-08-09T13:47:59.693Z,100000.88
2022-08-09T13:50:47.187Z,99992.06
2022-08-09T13:53:43.484Z,99988.47
2022-08-09T13:56:33.062Z,99989.09
2022-08-09T13:59:20.167Z,99974.91
2022-08-09T14:02:12.787Z,99989.09
2022-08-09T14:05:04.110Z,99989.75
2022-08-09T14:07:52.611Z,99986.78
2022-08-09T14:10:52.172Z,99980.41
2022-08-09T14:14:22.741Z,99972.75
2022-08-09T14:16:50.729Z,99974.88
2022-08-09T14:19:38.643Z,99980.28
2022-08-09T14:22:28.235Z,99974.44
2022-08-09T14:25:15.412Z,99975.41
2022-08-09T14:28:02.449Z,99969.34
2022-08-09T14:30:50.962Z,99962.53
2022-08-09T14:33:38.516Z,99968.72
2022-08-09T14:36:25.662Z,99970.53
2022-08-09T14:39:45.468Z,99969.69
2022-08-09T14:42:32.652Z,99956.16
2022-08-09T14:46:58.608Z,99963.38
2022-08-09T14:48:29.915Z,99958.66
2022-08-09T14:51:17.742Z,99971.03
2022-08-09T14:54:05.264Z,99972.84
2022-08-09T14:56:58.646Z,99959.81
2022-08-09T14:59:48.671Z,99957.84
2022-08-09T15:02:36.779Z,99959.13
2022-08-09T15:05:26.118Z,99957.16
2022-08-09T15:08:16.470Z,99955.19
2022-08-09T15:11:07.410Z,99948.03
2022-08-09T15:14:01.468Z,99955.31
2022-08-09T15:16:51.501Z,99951.41
2022-08-09T15:19:54.485Z,99945.81
2022-08-09T15:22:48.939Z,99945.69
2022-08-09T15:25:50.545Z,99956.94
2022-08-09T15:28:42.022Z,99945.50
2022-08-09T15:31:40.697Z,99950.72
2022-08-09T15:34:34.152Z,99950.72
2022-08-09T15:37:56.892Z,99944.69
2022-08-09T15:40:47.337Z,99931.81
2022-08-09T15:43:37.042Z,99944.06
2022-08-09T15:46:33.787Z,99946.66
2022-08-09T15:49:23.919Z,99935.56
2022-08-09T15:52:11.843Z,99931.34
2022-08-09T15:54:58.991Z,99930.88
2022-08-09T15:57:51.540Z,99932.81
2022-08-09T16:00:39.033Z,99936.59
2022-08-09T16:03:29.533Z,99937.59
2022-08-09T16:06:34.829Z,99932.38
2022-08-09T16:09:51.593Z,99939.03
2022-08-09T16:12:31.059Z,99929.06
2022-08-09T16:16:12.355Z,99918.31
2022-08-09T16:18:27.927Z,99931.34
2022-08-09T16:21:25.910Z,99931.00
2022-08-09T16:24:30.000Z,99934.25
2022-08-09T16:27:21.443Z,99929.69
2022-08-09T16:30:14.958Z,99932.09
2022-08-09T16:33:15.678Z,99934.56
2022-08-09T16:36:10.745Z,99939.94
2022-08-09T16:39:01.821Z,99933.75
2022-08-09T16:42:03.906Z,99935.53
2022-08-09T16:44:52.077Z,99932.09
2022-08-09T16:48:40.193Z,99926.25
2022-08-09T16:50:58.718Z,99932.63
2022-08-09T16:54:22.417Z,99925.78
2022-08-09T16:56:56.507Z,99925.31
2022-08-09T16:59:43.819Z,99927.91
2022-08-09T17:02:39.102Z,99926.44
2022-08-09T17:06:07.770Z,99919.63
2022-08-09T17:08:45.246Z,99930.38
2022-08-09T17:11:51.235Z,99929.75
2022-08-09T17:14:47.639Z,99924.72
2022-08-09T17:17:50.703Z,99928.13
2022-08-09T17:20:46.458Z,99933.50
2022-08-09T17:24:20.792Z,99928.47
2022-08-09T17:26:47.737Z,99935.63
2022-08-09T17:29:41.149Z,99938.25
2022-08-09T17:32:34.927Z,99942.66
2022-08-09T17:35:25.502Z,99938.59
2022-08-09T17:38:30.650Z,99938.59
2022-08-09T17:41:21.185Z,99935.31
2022-08-09T17:44:42.291Z,99937.13
2022-08-09T17:47:20.290Z,99940.88
2022-08-09T17:50:17.099Z,99935.03
2022-08-09T17:53:19.193Z,99942.03
2022-08-09T17:56:09.577Z,99942.22
2022-08-09T17:59:01.016Z,99943.19
2022-08-09T18:02:07.668Z,99948.41
2022-08-09T18:04:57.638Z,99948.75
2022-08-09T18:07:48.759Z,99961.78
2022-08-09T18:10:36.223Z,99947.09
2022-08-09T18:13:40.850Z,99961.16
2022-08-09T18:16:32.301Z,99961.47
2022-08-09T18:20:58.802Z,99959.88
2022-08-09T18:22:34.090Z,99959.38
2022-08-09T18:25:21.706Z,99958.72
2022-08-09T18:30:38.194Z,99956.28
2022-08-09T18:31:55.001Z,99956.41
2022-08-09T18:34:43.869Z,99958.38
2022-08-09T18:37:47.988Z,99963.75
2022-08-09T18:40:36.392Z,99957.09
2022-08-09T18:43:24.364Z,99965.06
2022-08-09T18:46:50.843Z,99956.44
2022-08-09T18:49:20.957Z,99964.59
2022-08-09T18:52:13.557Z,99963.94
2022-08-09T18:55:01.620Z,99973.72
2022-08-09T18:57:48.832Z,99972.44
2022-08-09T19:00:43.811Z,99964.13
2022-08-09T19:03:31.013Z,99974.88
2022-08-09T19:06:39.856Z,99975.53
2022-08-09T19:10:15.779Z,99983.69
2022-08-09T19:12:50.576Z,99985.97
2022-08-09T19:15:49.308Z,99987.25
2022-08-09T19:18:40.957Z,99985.00
2022-08-09T19:21:47.683Z,99991.34
2022-08-09T19:25:09.797Z,99998.66
2022-08-09T19:27:48.157Z,99992.13
2022-08-09T19:30:40.045Z,99998.66
2022-08-09T19:33:31.813Z,100003.19
2022-08-09T19:36:23.298Z,100003.50
2022-08-09T19:39:20.757Z,100003.19
2022-08-09T19:42:19.544Z,100007.91
2022-08-09T19:45:08.992Z,100006.59
2022-08-09T19:47:56.824Z,100010.31
2022-08-09T19:50:48.811Z,100016.31
2022-08-09T19:53:45.549Z,100016.66
2022-08-09T19:56:36.927Z,100011.25
2022-08-09T19:59:57.677Z,100015.16
2022-08-09T20:04:08.356Z,100025.22
2022-08-09T20:05:46.561Z,100012.53
2022-08-09T20:08:37.943Z,100024.25
2022-08-09T20:11:27.236Z,100018.53
2022-08-09T20:14:31.625Z,100024.06
2022-08-09T20:17:19.800Z,100022.56
2022-08-09T20:20:08.645Z,100021.22
2022-08-09T20:22:56.582Z,100023.19
2022-08-09T20:25:52.107Z,100028.56
2022-08-09T20:28:48.769Z,100022.84
2022-08-09T20:32:17.012Z,100019.72
2022-08-09T20:34:45.601Z,100022.81
2022-08-09T20:38:18.836Z,100022.97
2022-08-09T20:40:41.060Z,100023.41
2022-08-09T20:43:28.991Z,100033.97
2022-08-09T20:46:42.421Z,100032.50
2022-08-09T20:49:27.458Z,100034.63
2022-08-09T20:52:16.135Z,100033.13
2022-08-09T20:55:11.633Z,100038.63
2022-08-09T20:58:05.312Z,100036.34
2022-08-09T21:01:13.756Z,100048.88
2022-08-09T21:05:48.605Z,100043.13
2022-08-09T21:07:14.133Z,100047.81
2022-08-09T21:10:01.684Z,100044.56
2022-08-09T21:15:51.917Z,100048.63
2022-08-09T21:19:01.485Z,100046.28
2022-08-09T21:21:57.454Z,100049.38
2022-08-09T21:25:00.108Z,100048.81
2022-08-09T21:27:51.298Z,100057.56
2022-08-09T21:30:40.771Z,100047.47
2022-08-09T21:33:36.037Z,100054.63
2022-08-09T21:36:27.823Z,100049.72
2022-08-09T21:39:21.795Z,100059.47
2022-08-09T21:42:17.195Z,100057.97
2022-08-09T21:45:05.461Z,100053.91
2022-08-09T21:47:52.576Z,100053.09
2022-08-09T21:50:46.713Z,100049.97
2022-08-09T21:53:40.294Z,100060.53
2022-08-09T21:56:43.244Z,100060.69
2022-08-09T21:59:43.081Z,100054.94
2022-08-09T22:02:36.217Z,100058.66
2022-08-09T22:05:25.167Z,100053.63
2022-08-09T22:08:25.622Z,100054.72
2022-08-09T22:12:09.325Z,100060.75
2022-08-09T22:14:20.059Z,100056.53
2022-08-09T22:17:10.651Z,100056.53
2022-08-09T22:20:00.671Z,100053.94
2022-08-09T22:22:48.632Z,100046.13
2022-08-09T22:26:05.908Z,100043.38
2022-08-09T22:28:53.693Z,100045.81
2022-08-09T22:31:44.660Z,100053.47
2022-08-09T22:34:45.258Z,100052.88
2022-08-09T22:37:46.302Z,100049.00
2022-08-09T22:40:34.297Z,100054.56
2022-08-09T22:44:03.242Z,100054.28
2022-08-09T22:48:18.482Z,100043.56
2022-08-09T22:49:36.832Z,100054.63
2022-08-09T22:52:29.718Z,100055.97
2022-08-09T22:55:21.876Z,100048.81
2022-08-09T22:58:10.022Z,100052.13
2022-08-09T23:01:08.248Z,100044.81
2022-08-09T23:04:05.763Z,100045.50
2022-08-09T23:07:14.187Z,100046.13
2022-08-09T23:10:06.006Z,100044.38
2022-08-09T23:12:53.366Z,100044.22
2022-08-09T23:15:40.855Z,100048.47
2022-08-09T23:18:28.083Z,100043.25
2022-08-09T23:21:23.938Z,100028.63
2022-08-09T23:24:13.443Z,100044.38
2022-08-09T23:27:02.358Z,100039.16
2022-08-09T23:29:49.689Z,100032.34
2022-08-09T23:32:36.905Z,100039.47
2022-08-09T23:35:24.674Z,100043.03
2022-08-09T23:38:11.939Z,100037.16
2022-08-09T23:40:59.242Z,100038.97
2022-08-09T23:43:48.115Z,100036.53
2022-08-09T23:46:35.476Z,100033.22
2022-08-09T23:49:24.585Z,100032.41
2022-08-09T23:52:12.642Z,100041.97
2022-08-09T23:55:03.167Z,100034.16
2022-08-09T23:58:08.262Z,100035.16
